Nearby METAR Reports

 

KMSY - New Orleans,Louisiana, USA
Distance from station: E 11.7mi, 18.8km
Updated: Mon, 20-May-2019 12:15am CDT
Mostly cloudy
Mostly cloudy
 Wind from ESE
Wind: ESE 6 mph , 9 km/h
Temperature: 75°F , 24°C
Dew Point: 72°F , 22°C
Humidity: 89%
Barometer: 29.98 inHg , 1015.2 hPa
Clouds: Mostly cloudy
Visibility: 10 miles , 16 km
Cloud details: Few Clouds 700 ft
Partly cloudy 2200 ft
Mostly cloudy 2900 ft
2019/05/20 05:15 KMSY 200515Z 11005KT 10SM FEW007 SCT022 BKN029 24/22 A2998 RMK AO2 T02390217
KAPS - Reserve,Louisiana, USA
Distance from station: W 8.4mi, 13.5km
Updated: Mon, 20-May-2019 12:35am CDT
Mostly cloudy
Mostly cloudy
 Wind from SE
Wind: SE 3 mph , 6 km/h
Temperature: 73°F , 23°C
Dew Point: 72°F , 22°C
Humidity: 94%
Barometer: 29.99 inHg , 1015.6 hPa
Clouds: Mostly cloudy
Visibility: 10 miles , 16 km
Cloud details: Mostly cloudy 1700 ft
2019/05/20 05:35 KAPS 200535Z AUTO 14003KT 10SM BKN017 23/22 A2999 RMK AO2 T02340215
 
KHDC - Hammond,Louisiana, USA
Distance from station: N 31.5mi, 50.6km
Updated: Mon, 20-May-2019 12:35am CDT
Overcast
Overcast
 Wind from calm
Wind: Calm
Temperature: 70°F , 21°C
Dew Point: 70°F , 21°C
Humidity: 100%
Barometer: 29.99 inHg , 1015.6 hPa
Clouds: Overcast
Visibility: 10 miles , 16 km
Cloud details: Overcast 2300 ft
2019/05/20 05:35 KHDC 200535Z AUTO 00000KT 10SM OVC023 21/21 A2999 RMK AO2 PWINO
KHUM - Houma,Louisiana, USA
Distance from station: SW 36.54mi, 58.8km
Updated: Mon, 20-May-2019 12:35am CDT
Mostly cloudy
Mostly cloudy
 Wind from calm
Wind: Calm
Temperature: 72°F , 22°C
Dew Point: 72°F , 22°C
Humidity: 100%
Barometer: 29.98 inHg , 1015.2 hPa
Clouds: Mostly cloudy
Visibility: 7 miles , 11 km
Cloud details: Mostly cloudy 1300 ft
2019/05/20 05:35 KHUM 200535Z AUTO 00000KT 7SM BKN013 22/22 A2998 RMK AO2 T02220219